Time;durP1;ratioP1;P1;durP2;ratioP2;P2;SDS_P1;SDS_P2;PMS_P1;PMS_P2;Temp;Humidity;BMP_temperature;BMP_pressure;BME280_temperature;BME280_humidity;BME280_pressure;Samples;Min_cycle;Max_cycle;Signal;HPM_P1;HPM_P2
2021/12/06 05:00:22;;;;;;;64.57;28.23;;;1.00;99.90;;;;;;6021400;23;20189;-69
2021/12/06 05:02:49;;;;;;;63.30;27.95;;;1.00;99.90;;;;;;4934349;29;20214;-70
2021/12/06 05:05:19;;;;;;;49.15;25.42;;;1.00;99.90;;;;;;4935953;29;20209;-69
2021/12/06 05:07:50;;;;;;;54.25;25.90;;;0.90;99.90;;;;;;4934746;29;20206;-69
2021/12/06 05:10:17;;;;;;;51.08;24.60;;;0.90;99.90;;;;;;4933494;29;20229;-69
2021/12/06 05:12:45;;;;;;;58.50;25.20;;;0.90;99.90;;;;;;4914177;29;20581;-67
2021/12/06 05:15:13;;;;;;;59.28;27.27;;;0.90;99.90;;;;;;4911601;29;20677;-67
2021/12/06 05:17:43;;;;;;;48.65;25.10;;;0.90;99.90;;;;;;4909035;29;20210;-69
2021/12/06 05:20:12;;;;;;;65.95;28.75;;;0.90;99.90;;;;;;4915558;29;20210;-68
2021/12/06 05:22:39;;;;;;;63.95;27.38;;;0.80;99.90;;;;;;4912184;29;20206;-69
2021/12/06 05:25:07;;;;;;;61.05;27.40;;;0.80;99.90;;;;;;4915561;29;20207;-69
2021/12/06 05:27:34;;;;;;;64.18;27.27;;;0.80;99.90;;;;;;4914184;29;20285;-68
2021/12/06 05:30:03;;;;;;;58.30;25.98;;;0.80;99.90;;;;;;4915552;29;20650;-68
2021/12/06 05:32:34;;;;;;;53.25;24.40;;;0.80;99.90;;;;;;4914714;29;20317;-68
2021/12/06 05:35:07;;;;;;;53.08;26.08;;;0.80;99.90;;;;;;4915541;29;20242;-68
2021/12/06 05:37:35;;;;;;;51.38;25.30;;;0.80;99.90;;;;;;4909387;29;20214;-68
2021/12/06 05:40:02;;;;;;;48.85;24.45;;;0.80;99.90;;;;;;4914820;29;20207;-69
2021/12/06 05:42:29;;;;;;;57.67;27.65;;;0.80;99.90;;;;;;4913386;29;20222;-68
2021/12/06 05:44:56;;;;;;;62.47;26.48;;;0.80;99.90;;;;;;4914612;29;20815;-68
2021/12/06 05:47:22;;;;;;;58.70;27.30;;;0.80;99.90;;;;;;4913827;29;20206;-69
2021/12/06 05:49:49;;;;;;;58.78;26.40;;;0.80;99.90;;;;;;4914987;29;20222;-68
2021/12/06 05:52:18;;;;;;;51.17;25.58;;;0.70;99.90;;;;;;4903143;29;20335;-68
2021/12/06 05:54:44;;;;;;;61.30;27.10;;;0.70;99.90;;;;;;4896178;29;20207;-67
2021/12/06 05:57:12;;;;;;;54.00;27.10;;;0.70;99.90;;;;;;4908762;29;20202;-67
2021/12/06 05:59:41;;;;;;;56.58;26.45;;;0.70;99.90;;;;;;4914428;29;20585;-67
2021/12/06 06:02:09;;;;;;;61.22;26.38;;;0.70;99.90;;;;;;4913677;29;20317;-67
2021/12/06 06:04:36;;;;;;;64.25;26.67;;;0.70;99.90;;;;;;4912719;29;20210;-68
2021/12/06 06:07:04;;;;;;;57.92;27.85;;;0.70;99.90;;;;;;4913420;29;20207;-67
2021/12/06 06:09:32;;;;;;;61.03;27.05;;;0.70;99.90;;;;;;4914749;29;20294;-67
2021/12/06 06:12:00;;;;;;;50.53;25.85;;;0.70;99.90;;;;;;4913735;29;20237;-67
2021/12/06 06:14:27;;;;;;;61.70;27.67;;;0.60;99.90;;;;;;4913578;29;20290;-68
2021/12/06 06:16:54;;;;;;;58.50;26.85;;;0.60;99.90;;;;;;4914065;29;20294;-68
2021/12/06 06:19:23;;;;;;;62.40;26.20;;;0.70;99.90;;;;;;4913952;29;20231;-68
2021/12/06 06:21:51;;;;;;;55.90;25.77;;;0.60;99.90;;;;;;4914751;29;20338;-67
2021/12/06 06:24:17;;;;;;;59.75;27.23;;;0.70;99.90;;;;;;4914947;29;20289;-68
2021/12/06 06:26:46;;;;;;;53.33;27.25;;;0.70;99.90;;;;;;4915397;29;20207;-68
2021/12/06 06:29:14;;;;;;;49.00;26.50;;;0.70;99.90;;;;;;4914496;29;20684;-68
2021/12/06 06:31:40;;;;;;;63.40;29.10;;;0.60;99.90;;;;;;4914236;29;20233;-68
2021/12/06 06:34:07;;;;;;;60.28;27.40;;;0.60;99.90;;;;;;4914673;29;20238;-68
2021/12/06 06:36:34;;;;;;;56.33;28.92;;;0.70;99.90;;;;;;4944929;23;20577;-71
2021/12/06 06:39:02;;;;;;;58.95;27.60;;;0.70;99.90;;;;;;4971844;28;20235;-72
2021/12/06 06:41:30;;;;;;;49.70;25.42;;;0.60;99.90;;;;;;4969845;28;20254;-71
2021/12/06 06:43:59;;;;;;;58.47;25.95;;;0.70;99.90;;;;;;4971063;28;20304;-72
2021/12/06 06:46:25;;;;;;;52.17;26.38;;;0.70;99.90;;;;;;4966833;28;20228;-71
2021/12/06 06:48:53;;;;;;;51.92;25.20;;;0.60;99.90;;;;;;4952069;28;20216;-72
2021/12/06 06:51:20;;;;;;;54.45;25.85;;;0.60;99.90;;;;;;4951796;28;20668;-71
2021/12/06 06:53:46;;;;;;;65.40;27.35;;;0.60;99.90;;;;;;4949703;28;20220;-72
2021/12/06 06:56:13;;;;;;;55.85;28.63;;;0.60;99.90;;;;;;4943479;28;20248;-72
2021/12/06 06:58:40;;;;;;;51.95;26.73;;;0.60;99.90;;;;;;4951591;28;20213;-71
2021/12/06 07:01:09;;;;;;;61.22;28.13;;;0.60;99.90;;;;;;4950951;28;20213;-70
2021/12/06 07:03:35;;;;;;;79.03;31.90;;;0.60;99.90;;;;;;4952452;29;20272;-70
2021/12/06 07:06:03;;;;;;;59.88;29.52;;;0.60;99.90;;;;;;4951514;28;20714;-71
2021/12/06 07:08:30;;;;;;;67.38;27.80;;;0.60;99.90;;;;;;4952190;28;20209;-71
2021/12/06 07:10:57;;;;;;;51.05;25.00;;;0.70;99.90;;;;;;4951625;28;20283;-72
2021/12/06 07:13:26;;;;;;;59.90;26.13;;;0.70;99.90;;;;;;4951463;28;20244;-71
2021/12/06 07:15:53;;;;;;;54.20;26.95;;;0.60;99.90;;;;;;4944356;28;20210;-70
2021/12/06 07:18:21;;;;;;;59.53;27.45;;;0.70;99.90;;;;;;4939476;29;20213;-70
2021/12/06 07:20:48;;;;;;;57.88;27.38;;;0.70;99.90;;;;;;4950964;28;20209;-71
2021/12/06 07:23:15;;;;;;;55.45;26.90;;;0.70;99.90;;;;;;4951464;28;20213;-71
2021/12/06 07:25:41;;;;;;;58.42;28.23;;;0.70;99.90;;;;;;4947852;28;20202;-70
2021/12/06 07:28:09;;;;;;;56.47;28.23;;;0.70;99.90;;;;;;4943001;29;20237;-70
2021/12/06 07:30:35;;;;;;;60.75;26.52;;;0.70;99.90;;;;;;4948561;28;20229;-70
2021/12/06 07:33:02;;;;;;;62.30;27.63;;;0.70;99.90;;;;;;4951428;28;20216;-70
2021/12/06 07:35:31;;;;;;;58.15;27.83;;;0.70;99.90;;;;;;4943298;28;20210;-70
2021/12/06 07:37:59;;;;;;;50.88;26.95;;;0.70;99.90;;;;;;4950952;28;20247;-69
2021/12/06 07:40:26;;;;;;;59.15;28.05;;;0.70;99.90;;;;;;4950402;28;20202;-69
2021/12/06 07:42:53;;;;;;;52.70;25.30;;;0.80;99.90;;;;;;4949926;28;20717;-71
2021/12/06 07:45:20;;;;;;;63.28;29.10;;;0.80;99.90;;;;;;4943749;29;20208;-71
2021/12/06 07:47:47;;;;;;;63.08;31.42;;;0.80;99.90;;;;;;4951396;28;20237;-71
2021/12/06 07:50:17;;;;;;;62.80;29.50;;;0.80;99.90;;;;;;4951059;28;20201;-70
2021/12/06 07:52:47;;;;;;;60.17;29.13;;;0.80;99.90;;;;;;4952167;28;20302;-71
2021/12/06 07:55:15;;;;;;;63.53;30.55;;;0.80;99.90;;;;;;4951891;28;20205;-71
2021/12/06 07:57:42;;;;;;;56.25;26.77;;;0.90;99.90;;;;;;4951363;28;20308;-71
2021/12/06 08:00:12;;;;;;;60.78;28.25;;;0.90;99.90;;;;;;4952253;28;20235;-71
2021/12/06 08:02:39;;;;;;;56.75;30.67;;;0.90;99.90;;;;;;4951066;28;20216;-71
2021/12/06 08:07:49;;;;;;;61.65;29.35;;;0.90;99.90;;;;;;4952922;28;20217;-70
2021/12/06 08:10:16;;;;;;;61.10;28.35;;;0.90;99.90;;;;;;4939531;28;20214;-71
2021/12/06 08:12:43;;;;;;;60.30;27.08;;;0.90;99.90;;;;;;4935273;29;20229;-71
2021/12/06 08:15:11;;;;;;;65.05;28.88;;;0.90;99.90;;;;;;4944654;29;20218;-71
2021/12/06 08:17:38;;;;;;;57.95;28.80;;;0.90;99.90;;;;;;4946657;29;20225;-70
2021/12/06 08:20:07;;;;;;;62.88;27.08;;;0.80;99.90;;;;;;4943340;28;20301;-70
2021/12/06 08:22:34;;;;;;;55.58;28.73;;;0.80;99.90;;;;;;4947161;28;20217;-71
2021/12/06 08:25:02;;;;;;;69.47;28.55;;;0.80;99.90;;;;;;4948865;28;20219;-70
2021/12/06 08:27:29;;;;;;;60.33;27.23;;;0.80;99.90;;;;;;4950240;28;20304;-71
2021/12/06 08:29:55;;;;;;;73.57;29.55;;;0.80;99.90;;;;;;4946278;29;20206;-71
2021/12/06 08:32:22;;;;;;;68.82;29.45;;;0.80;99.90;;;;;;4944942;28;20225;-71
2021/12/06 08:34:49;;;;;;;63.30;29.58;;;0.80;99.90;;;;;;4937035;29;20205;-71
2021/12/06 08:37:16;;;;;;;63.17;30.05;;;0.90;99.90;;;;;;4953803;28;20241;-71
2021/12/06 08:39:43;;;;;;;67.07;31.27;;;0.80;99.90;;;;;;4954329;28;20287;-70
2021/12/06 08:42:11;;;;;;;59.88;29.70;;;0.80;99.90;;;;;;4954202;28;20201;-70
2021/12/06 08:44:38;;;;;;;64.22;30.10;;;0.80;99.90;;;;;;4954291;28;20594;-69
2021/12/06 08:47:05;;;;;;;56.38;28.10;;;0.80;99.90;;;;;;4953834;28;20225;-71
2021/12/06 08:49:33;;;;;;;66.45;31.02;;;0.80;99.90;;;;;;4952553;28;20205;-72
2021/12/06 08:52:00;;;;;;;64.40;29.00;;;0.80;99.90;;;;;;4953054;28;20329;-72
2021/12/06 08:54:29;;;;;;;65.22;31.05;;;0.80;99.90;;;;;;4937557;29;20724;-71
2021/12/06 08:56:58;;;;;;;59.70;29.92;;;0.80;99.90;;;;;;4945236;28;20308;-71
2021/12/06 08:59:26;;;;;;;63.40;31.77;;;0.80;99.90;;;;;;4952468;28;20206;-72
2021/12/06 09:01:54;;;;;;;63.45;30.50;;;0.90;99.90;;;;;;4953500;28;20220;-72
2021/12/06 09:04:22;;;;;;;65.82;28.77;;;0.90;99.90;;;;;;4952363;29;20205;-71
2021/12/06 09:06:51;;;;;;;63.42;30.17;;;0.90;99.90;;;;;;4953664;28;20586;-72
2021/12/06 09:09:19;;;;;;;57.33;29.85;;;0.90;99.90;;;;;;4952680;29;20225;-72
2021/12/06 09:11:46;;;;;;;64.25;29.85;;;0.90;99.90;;;;;;4953078;28;20217;-72
2021/12/06 09:14:13;;;;;;;71.05;30.67;;;0.90;99.90;;;;;;4951754;29;20206;-72
2021/12/06 09:16:42;;;;;;;62.55;29.95;;;0.90;99.90;;;;;;4943626;28;20256;-72
2021/12/06 09:19:12;;;;;;;65.28;30.20;;;0.90;99.90;;;;;;4939507;29;20220;-72
2021/12/06 09:21:39;;;;;;;77.38;33.30;;;1.00;99.90;;;;;;4952919;28;20237;-71
2021/12/06 09:24:08;;;;;;;63.60;29.65;;;1.00;99.90;;;;;;4946867;29;20208;-71
2021/12/06 09:26:36;;;;;;;71.97;30.67;;;1.00;99.90;;;;;;4948916;28;20734;-71
2021/12/06 09:29:04;;;;;;;75.75;33.13;;;1.00;99.90;;;;;;4939221;28;20205;-71
2021/12/06 09:31:31;;;;;;;71.93;35.22;;;1.00;99.90;;;;;;4949197;29;20310;-71
2021/12/06 09:33:59;;;;;;;61.50;29.75;;;1.10;99.90;;;;;;4945406;29;20577;-71
2021/12/06 09:36:27;;;;;;;62.40;30.15;;;1.10;99.90;;;;;;4949667;28;20248;-71
2021/12/06 09:38:54;;;;;;;63.05;31.92;;;1.10;99.90;;;;;;4950313;28;20209;-71
2021/12/06 09:41:23;;;;;;;71.03;30.75;;;1.10;99.90;;;;;;4945135;29;20201;-70
2021/12/06 09:43:51;;;;;;;68.25;32.00;;;1.10;99.90;;;;;;4937494;29;20276;-70
2021/12/06 09:46:19;;;;;;;71.65;30.25;;;1.10;99.90;;;;;;4944545;29;20229;-71
2021/12/06 09:48:47;;;;;;;66.70;30.85;;;1.10;99.90;;;;;;4941893;28;20206;-71
2021/12/06 09:51:21;;;;;;;70.15;30.30;;;1.10;99.90;;;;;;4947267;28;20303;-71
2021/12/06 09:53:50;;;;;;;61.20;30.17;;;1.20;99.90;;;;;;4943414;29;20201;-71
2021/12/06 09:56:23;;;;;;;65.80;31.15;;;1.20;99.90;;;;;;4948140;28;20233;-71
2021/12/06 09:58:50;;;;;;;62.10;30.33;;;1.10;99.90;;;;;;4945053;28;20206;-71
2021/12/06 10:01:21;;;;;;;80.80;32.13;;;1.20;99.90;;;;;;4943959;29;20209;-71
2021/12/06 10:03:49;;;;;;;75.57;30.88;;;1.20;99.90;;;;;;4951169;28;20700;-70
2021/12/06 10:06:18;;;;;;;58.20;31.10;;;1.20;99.90;;;;;;4952051;28;20308;-70
2021/12/06 10:08:51;;;;;;;69.32;30.45;;;1.20;99.90;;;;;;4949516;29;20316;-71
2021/12/06 10:11:20;;;;;;;65.45;31.02;;;1.30;99.90;;;;;;4952802;28;20275;-71
2021/12/06 10:13:48;;;;;;;69.80;32.03;;;1.30;99.90;;;;;;4952054;28;20209;-72
2021/12/06 10:16:15;;;;;;;60.35;29.27;;;1.40;99.90;;;;;;4948356;28;20238;-72
2021/12/06 10:18:43;;;;;;;74.45;33.15;;;1.40;99.90;;;;;;4945664;29;20549;-70
2021/12/06 10:21:10;;;;;;;69.20;32.38;;;1.40;99.90;;;;;;4951185;28;20211;-70
2021/12/06 10:23:39;;;;;;;65.75;32.47;;;1.40;99.90;;;;;;4952860;28;20216;-70
2021/12/06 10:26:08;;;;;;;64.20;30.00;;;1.50;99.90;;;;;;4949951;28;20208;-72
2021/12/06 10:28:35;;;;;;;64.28;31.73;;;1.50;99.90;;;;;;4947587;29;20210;-71
2021/12/06 10:31:05;;;;;;;61.25;31.33;;;1.50;99.90;;;;;;4941150;29;20201;-70
2021/12/06 10:33:34;;;;;;;68.40;32.45;;;1.50;99.90;;;;;;4949963;28;20205;-72
2021/12/06 10:36:05;;;;;;;58.42;29.38;;;1.60;99.90;;;;;;4947232;28;20201;-71
2021/12/06 10:38:34;;;;;;;77.38;32.03;;;1.60;99.90;;;;;;4948132;28;20225;-71
2021/12/06 10:41:05;;;;;;;54.72;28.00;;;1.60;99.90;;;;;;4946668;29;20296;-71
2021/12/06 10:43:34;;;;;;;65.95;28.80;;;1.60;99.90;;;;;;4948332;28;20221;-70
2021/12/06 10:46:03;;;;;;;54.90;28.60;;;1.70;99.90;;;;;;4939029;28;20201;-71
2021/12/06 10:48:32;;;;;;;61.60;30.33;;;1.70;99.90;;;;;;4940600;28;20202;-70
2021/12/06 10:51:01;;;;;;;64.40;30.77;;;1.60;99.90;;;;;;4945635;29;20245;-70
2021/12/06 10:53:32;;;;;;;64.38;29.65;;;1.70;99.90;;;;;;4949516;28;20216;-70
2021/12/06 10:55:59;;;;;;;62.78;28.65;;;1.70;99.90;;;;;;4942002;29;20562;-70
2021/12/06 10:58:30;;;;;;;60.85;30.30;;;1.80;99.90;;;;;;4940830;29;20212;-70
2021/12/06 11:01:02;;;;;;;62.33;30.42;;;1.70;99.90;;;;;;4933844;29;20221;-70
2021/12/06 11:03:33;;;;;;;57.35;27.33;;;1.70;99.90;;;;;;4951516;28;20193;-71
2021/12/06 11:06:04;;;;;;;66.55;32.47;;;1.80;99.90;;;;;;4951988;28;20213;-71
2021/12/06 11:08:34;;;;;;;71.07;30.20;;;1.80;99.90;;;;;;4946397;29;20693;-72
2021/12/06 11:11:03;;;;;;;56.38;25.13;;;1.80;99.90;;;;;;4951731;28;20211;-71
2021/12/06 11:13:34;;;;;;;47.72;22.13;;;1.80;99.90;;;;;;4946401;28;20224;-71
2021/12/06 11:16:09;;;;;;;47.92;24.02;;;1.70;99.90;;;;;;4951979;28;20197;-71
2021/12/06 11:18:40;;;;;;;47.50;27.27;;;1.70;99.90;;;;;;4951825;28;20192;-71
2021/12/06 11:21:19;;;;;;;47.70;24.90;;;1.60;99.90;;;;;;4951966;28;20694;-72
2021/12/06 11:24:07;;;;;;;49.47;26.20;;;1.70;99.90;;;;;;4952268;28;20701;-71
2021/12/06 11:26:37;;;;;;;48.03;24.77;;;1.70;99.90;;;;;;4952058;28;20237;-72
2021/12/06 11:29:12;;;;;;;45.72;20.65;;;1.80;99.90;;;;;;4952221;28;20197;-72
2021/12/06 11:31:40;;;;;;;24.30;14.23;;;1.80;99.90;;;;;;4951986;28;20217;-72
2021/12/06 11:34:08;;;;;;;51.28;24.27;;;1.70;99.90;;;;;;4950842;28;20292;-72
2021/12/06 11:36:39;;;;;;;45.35;23.25;;;1.70;99.90;;;;;;4950862;28;20236;-72
2021/12/06 11:39:08;;;;;;;48.20;25.55;;;1.80;99.90;;;;;;4952070;28;20201;-72
2021/12/06 11:41:35;;;;;;;49.25;23.02;;;1.80;99.90;;;;;;4951436;28;20212;-71
2021/12/06 11:44:17;;;;;;;46.00;23.98;;;1.80;99.90;;;;;;4940550;28;20249;-71
2021/12/06 11:46:44;;;;;;;53.72;23.88;;;1.90;99.90;;;;;;4947453;28;20224;-71
2021/12/06 11:49:22;;;;;;;54.25;26.35;;;2.00;99.90;;;;;;4951265;28;20205;-72
2021/12/06 11:51:51;;;;;;;45.60;23.80;;;2.00;99.90;;;;;;4943840;29;20225;-71
2021/12/06 11:54:18;;;;;;;48.97;23.52;;;2.00;99.90;;;;;;4932680;28;20206;-71
2021/12/06 11:56:48;;;;;;;50.05;25.13;;;1.90;99.90;;;;;;4932478;29;20288;-71
2021/12/06 11:59:18;;;;;;;40.83;22.77;;;1.90;99.90;;;;;;4937392;29;20205;-72
2021/12/06 12:01:47;;;;;;;38.60;19.73;;;2.00;99.90;;;;;;4950979;28;20268;-72
2021/12/06 12:04:16;;;;;;;57.40;28.17;;;2.00;99.90;;;;;;4946220;29;20212;-72
2021/12/06 12:06:45;;;;;;;57.67;28.15;;;2.00;99.90;;;;;;4951364;28;20225;-72
2021/12/06 12:09:14;;;;;;;52.17;25.48;;;2.10;99.90;;;;;;4950727;28;20210;-72
2021/12/06 12:12:00;;;;;;;63.38;32.50;;;2.10;99.90;;;;;;4951284;28;20576;-72
2021/12/06 12:14:31;;;;;;;65.40;33.38;;;2.10;99.90;;;;;;4946679;29;20642;-72
2021/12/06 12:17:00;;;;;;;53.30;27.90;;;2.10;99.90;;;;;;4933017;28;20237;-71
2021/12/06 12:19:28;;;;;;;56.33;28.40;;;2.20;99.90;;;;;;4944499;29;20209;-71
2021/12/06 12:21:54;;;;;;;52.35;28.45;;;2.20;99.90;;;;;;4951282;28;20671;-71
2021/12/06 12:24:21;;;;;;;53.53;27.17;;;2.30;99.90;;;;;;4950931;28;20235;-71
2021/12/06 12:27:03;;;;;;;49.20;26.88;;;2.30;99.90;;;;;;4951000;28;20233;-71
2021/12/06 12:29:31;;;;;;;44.33;21.50;;;2.30;99.90;;;;;;4948454;28;20228;-72
2021/12/06 12:32:00;;;;;;;39.20;18.35;;;2.30;99.90;;;;;;4945010;29;20244;-72
2021/12/06 12:34:32;;;;;;;47.05;21.05;;;2.20;99.90;;;;;;4945983;28;20210;-71
2021/12/06 12:36:59;;;;;;;128.20;81.22;;;2.20;99.90;;;;;;4931944;29;20242;-71
2021/12/06 12:39:27;;;;;;;49.58;28.42;;;2.10;99.90;;;;;;4931995;29;20210;-72
2021/12/06 12:41:57;;;;;;;53.40;29.35;;;2.20;99.90;;;;;;4931872;29;20663;-71
2021/12/06 12:44:25;;;;;;;47.80;26.23;;;2.20;99.90;;;;;;4934544;29;20201;-72
2021/12/06 12:46:53;;;;;;;40.20;21.73;;;2.20;99.90;;;;;;4952006;28;20621;-72
2021/12/06 12:49:24;;;;;;;43.03;25.00;;;2.10;99.90;;;;;;4953319;28;20350;-71
2021/12/06 12:51:54;;;;;;;49.00;24.23;;;2.10;99.90;;;;;;4952624;28;20209;-72
2021/12/06 12:54:24;;;;;;;42.08;23.50;;;2.10;99.90;;;;;;4954454;28;20564;-71
2021/12/06 12:56:54;;;;;;;44.28;24.20;;;2.20;99.90;;;;;;4956052;28;20264;-71
2021/12/06 12:59:25;;;;;;;41.78;22.80;;;2.20;99.90;;;;;;4953772;28;20205;-72
2021/12/06 13:02:16;;;;;;;39.85;22.00;;;2.20;99.90;;;;;;4954485;28;20802;-72
2021/12/06 13:05:15;;;;;;;41.08;22.98;;;2.20;99.90;;;;;;4948494;28;20289;-72
2021/12/06 13:07:56;;;;;;;33.53;18.95;;;2.30;99.90;;;;;;4947086;29;20229;-72
2021/12/06 13:10:30;;;;;;;51.75;23.80;;;2.20;99.90;;;;;;4954422;28;20300;-72
2021/12/06 13:13:01;;;;;;;43.03;22.80;;;2.20;99.90;;;;;;4952400;28;20232;-73
2021/12/06 13:15:47;;;;;;;47.67;21.88;;;2.20;99.90;;;;;;4938176;28;20218;-73
2021/12/06 13:19:04;;;;;;;37.05;21.02;;;2.20;99.90;;;;;;4954224;28;20287;-71
2021/12/06 13:21:37;;;;;;;47.45;21.90;;;2.20;99.90;;;;;;4954000;28;20303;-72
2021/12/06 13:24:07;;;;;;;38.20;21.58;;;2.20;99.90;;;;;;4954089;28;20213;-71
2021/12/06 13:26:38;;;;;;;37.80;22.17;;;2.10;99.90;;;;;;4953903;28;20238;-71
2021/12/06 13:29:07;;;;;;;54.47;23.55;;;2.10;99.90;;;;;;4953441;28;20212;-72
2021/12/06 13:31:34;;;;;;;40.13;21.45;;;2.10;99.90;;;;;;4954018;28;20741;-72
2021/12/06 13:34:17;;;;;;;22.90;14.93;;;2.20;99.90;;;;;;4954181;28;20232;-72
2021/12/06 13:36:46;;;;;;;37.83;19.52;;;2.10;99.90;;;;;;4953583;28;20232;-71
2021/12/06 13:39:39;;;;;;;14.55;10.10;;;2.10;99.90;;;;;;4953726;28;20691;-72
2021/12/06 13:42:08;;;;;;;31.60;16.15;;;2.00;99.90;;;;;;4956214;28;20296;-74
2021/12/06 13:44:46;;;;;;;36.00;19.73;;;1.90;99.90;;;;;;4942275;28;20251;-72
2021/12/06 13:47:15;;;;;;;33.92;20.95;;;1.90;99.90;;;;;;4936753;29;20278;-72
2021/12/06 13:50:00;;;;;;;11.82;8.00;;;1.90;99.90;;;;;;4939676;29;20202;-75
2021/12/06 13:52:36;;;;;;;31.48;14.43;;;1.90;99.90;;;;;;4947960;29;20325;-72
2021/12/06 13:55:18;;;;;;;32.00;19.40;;;1.90;99.90;;;;;;4954811;28;20621;-72
2021/12/06 13:57:47;;;;;;;33.78;16.88;;;1.90;99.90;;;;;;4951382;28;20229;-72
2021/12/06 14:00:15;;;;;;;54.05;25.42;;;1.90;99.90;;;;;;4949997;28;20861;-71
2021/12/06 14:02:42;;;;;;;43.38;20.58;;;1.90;99.90;;;;;;4956446;28;20211;-73
2021/12/06 14:05:12;;;;;;;42.15;24.02;;;2.00;99.90;;;;;;4955615;28;20198;-72
2021/12/06 14:07:42;;;;;;;40.78;22.27;;;2.00;99.90;;;;;;4956252;28;20317;-73
2021/12/06 14:10:12;;;;;;;44.05;24.13;;;2.00;99.90;;;;;;4956183;28;20764;-72
2021/12/06 14:12:40;;;;;;;37.75;20.48;;;2.00;99.90;;;;;;4955876;28;20248;-72
2021/12/06 14:15:18;;;;;;;41.97;21.02;;;2.00;99.90;;;;;;4956080;28;20201;-72
2021/12/06 14:17:45;;;;;;;31.33;17.80;;;1.90;99.90;;;;;;4955142;28;20241;-73
2021/12/06 14:20:14;;;;;;;33.38;19.02;;;1.90;99.90;;;;;;4956222;28;20452;-72
2021/12/06 14:22:43;;;;;;;34.35;19.05;;;1.90;99.90;;;;;;4956577;28;20724;-72
2021/12/06 14:25:12;;;;;;;39.97;20.08;;;1.80;99.90;;;;;;4950463;29;20275;-72
2021/12/06 14:27:40;;;;;;;28.55;14.80;;;1.90;99.90;;;;;;4954189;28;20264;-72
2021/12/06 14:30:10;;;;;;;30.38;19.02;;;1.80;99.90;;;;;;4954427;28;20213;-71
2021/12/06 14:32:37;;;;;;;26.55;13.02;;;1.90;99.90;;;;;;4952952;28;20221;-71
2021/12/06 14:35:04;;;;;;;26.80;16.05;;;1.80;99.90;;;;;;4941129;28;20206;-71
2021/12/06 14:37:32;;;;;;;19.50;12.63;;;1.80;99.90;;;;;;4947030;29;20240;-72
2021/12/06 14:40:00;;;;;;;38.25;18.50;;;1.70;99.90;;;;;;4960682;28;20268;-70
2021/12/06 14:42:28;;;;;;;33.15;19.50;;;1.70;99.90;;;;;;4957680;28;20670;-72
2021/12/06 14:44:57;;;;;;;34.75;18.00;;;1.70;99.90;;;;;;4955719;28;20209;-72
2021/12/06 14:47:36;;;;;;;38.42;20.05;;;1.70;99.90;;;;;;4952823;28;20280;-73
2021/12/06 14:50:10;;;;;;;33.90;19.00;;;1.70;99.90;;;;;;4951976;28;20205;-71
2021/12/06 14:52:41;;;;;;;25.83;14.15;;;1.70;99.90;;;;;;4940182;29;20299;-71
2021/12/06 14:58:03;;;;;;;34.60;17.88;;;1.70;99.90;;;;;;4949468;28;20221;-70
2021/12/06 15:00:33;;;;;;;43.88;20.13;;;1.70;99.90;;;;;;4948884;28;20696;-71
2021/12/06 15:03:01;;;;;;;32.15;15.50;;;1.70;99.90;;;;;;4949317;28;20665;-71
2021/12/06 15:05:31;;;;;;;20.27;12.38;;;1.70;99.90;;;;;;4939391;28;20804;-70
2021/12/06 15:08:03;;;;;;;22.92;13.80;;;1.70;99.90;;;;;;4941623;29;20713;-71
2021/12/06 15:10:30;;;;;;;34.67;16.70;;;1.70;99.90;;;;;;4952217;28;20711;-71
2021/12/06 15:12:59;;;;;;;39.75;19.55;;;1.70;99.90;;;;;;4946314;28;20248;-72
2021/12/06 15:15:29;;;;;;;35.85;18.40;;;1.60;99.90;;;;;;4951161;29;20217;-71
2021/12/06 15:17:56;;;;;;;36.03;18.75;;;1.70;99.90;;;;;;4945792;28;20217;-71
2021/12/06 15:20:25;;;;;;;20.02;13.07;;;1.70;99.90;;;;;;4951282;28;20212;-71
2021/12/06 15:22:52;;;;;;;27.45;17.48;;;1.70;99.90;;;;;;4945979;28;20210;-71
2021/12/06 15:25:21;;;;;;;28.08;16.35;;;1.70;99.90;;;;;;4950419;29;20205;-71
2021/12/06 15:27:48;;;;;;;26.60;14.90;;;1.60;99.90;;;;;;4951381;28;20300;-71
2021/12/06 15:30:17;;;;;;;34.20;17.60;;;1.60;99.90;;;;;;4950788;28;20216;-72
2021/12/06 15:32:48;;;;;;;35.58;18.20;;;1.60;99.90;;;;;;4943474;29;20635;-72
2021/12/06 15:35:23;;;;;;;31.00;18.42;;;1.70;99.90;;;;;;4939618;28;20240;-71
2021/12/06 15:37:52;;;;;;;36.22;20.38;;;1.70;99.90;;;;;;4947145;28;20248;-72
2021/12/06 15:40:20;;;;;;;30.50;16.13;;;1.70;99.90;;;;;;4937458;28;20212;-71
2021/12/06 15:42:47;;;;;;;33.17;16.83;;;1.70;99.90;;;;;;4947593;29;20216;-70
2021/12/06 15:45:15;;;;;;;35.60;18.25;;;1.70;99.90;;;;;;4940873;28;20205;-71
2021/12/06 15:47:46;;;;;;;35.33;17.55;;;1.70;99.90;;;;;;4947655;28;20738;-71
2021/12/06 15:50:16;;;;;;;37.85;20.10;;;1.70;99.90;;;;;;4944877;28;20729;-71
2021/12/06 15:52:44;;;;;;;42.05;20.55;;;1.70;99.90;;;;;;4947082;28;20598;-72
2021/12/06 15:55:14;;;;;;;19.75;12.20;;;1.70;99.90;;;;;;4942211;28;20201;-71
2021/12/06 15:57:43;;;;;;;36.75;20.40;;;1.70;99.90;;;;;;4940691;28;20222;-71
2021/12/06 16:00:14;;;;;;;35.72;20.13;;;1.70;99.90;;;;;;4945376;29;20208;-71
2021/12/06 16:02:44;;;;;;;33.80;17.83;;;1.70;99.90;;;;;;4942538;29;20579;-71
2021/12/06 16:05:14;;;;;;;19.52;11.23;;;1.70;99.90;;;;;;4951697;29;20283;-72
2021/12/06 16:07:41;;;;;;;36.10;17.52;;;1.70;99.90;;;;;;4951888;28;20613;-72
2021/12/06 16:10:10;;;;;;;35.92;18.90;;;1.70;99.90;;;;;;4940884;29;20651;-72
2021/12/06 16:12:39;;;;;;;30.25;16.60;;;1.70;99.90;;;;;;4947356;28;20210;-72
2021/12/06 16:15:09;;;;;;;14.30;10.82;;;1.70;99.90;;;;;;4937864;28;20258;-72
2021/12/06 16:17:36;;;;;;;16.40;10.50;;;1.70;99.90;;;;;;4952035;28;20225;-73
2021/12/06 16:20:06;;;;;;;29.58;20.15;;;1.70;99.90;;;;;;4943042;28;20210;-71
2021/12/06 16:22:32;;;;;;;39.70;20.92;;;1.70;99.90;;;;;;4951148;28;20283;-71
2021/12/06 16:24:59;;;;;;;21.98;14.23;;;1.70;99.90;;;;;;4945095;28;20559;-72
2021/12/06 16:27:26;;;;;;;30.13;18.13;;;1.70;99.90;;;;;;4949707;28;20331;-71
2021/12/06 16:29:53;;;;;;;35.40;19.35;;;1.70;99.90;;;;;;4949084;28;20296;-72
2021/12/06 16:32:27;;;;;;;32.88;17.92;;;1.70;99.90;;;;;;4942850;29;20212;-72
2021/12/06 16:34:54;;;;;;;29.92;16.98;;;1.70;99.90;;;;;;4948855;29;20213;-72
2021/12/06 16:37:24;;;;;;;20.25;10.07;;;1.70;99.90;;;;;;4943946;28;20229;-73
2021/12/06 16:39:53;;;;;;;41.92;19.95;;;1.80;99.90;;;;;;4952622;29;20238;-71
2021/12/06 16:42:27;;;;;;;25.75;14.98;;;1.80;99.90;;;;;;4953337;28;20217;-71
2021/12/06 16:44:56;;;;;;;30.88;19.15;;;1.80;99.90;;;;;;4945589;29;20190;-72
2021/12/06 16:47:26;;;;;;;35.53;19.77;;;1.80;99.90;;;;;;4936009;29;20237;-71
2021/12/06 16:49:55;;;;;;;24.05;16.13;;;1.80;99.90;;;;;;4939695;29;20286;-71
2021/12/06 16:52:26;;;;;;;37.60;20.80;;;1.80;99.90;;;;;;4947302;29;20201;-71
2021/12/06 16:54:58;;;;;;;38.25;21.70;;;1.80;99.90;;;;;;4953812;28;20217;-71
2021/12/06 16:57:27;;;;;;;8.10;6.88;;;1.80;99.90;;;;;;4954461;28;20229;-71
2021/12/06 16:59:54;;;;;;;21.58;12.98;;;1.80;99.90;;;;;;4955361;29;20213;-71
2021/12/06 17:02:25;;;;;;;20.30;11.52;;;1.80;99.90;;;;;;4942034;29;20201;-71
2021/12/06 17:04:54;;;;;;;20.92;11.63;;;1.80;99.90;;;;;;4947688;28;20573;-71
2021/12/06 17:07:28;;;;;;;23.60;13.27;;;1.80;99.90;;;;;;4936426;29;20686;-71
2021/12/06 17:09:56;;;;;;;28.33;16.92;;;1.80;99.90;;;;;;4953614;28;20300;-71
2021/12/06 17:12:24;;;;;;;22.48;11.95;;;1.80;99.90;;;;;;4942650;28;20221;-71
2021/12/06 17:14:52;;;;;;;32.85;18.92;;;1.80;99.90;;;;;;4934699;29;20225;-72
2021/12/06 17:17:19;;;;;;;26.20;13.00;;;1.80;99.90;;;;;;4944500;29;20743;-72
2021/12/06 17:19:47;;;;;;;28.80;17.00;;;1.80;99.90;;;;;;4947279;28;20217;-72
2021/12/06 17:22:17;;;;;;;20.17;14.65;;;1.80;99.90;;;;;;4953375;28;20201;-72
2021/12/06 17:24:53;;;;;;;38.45;21.27;;;1.80;99.90;;;;;;4954011;28;20587;-72
2021/12/06 17:27:30;;;;;;;40.08;18.88;;;1.80;99.90;;;;;;4953176;28;20332;-73
2021/12/06 17:29:58;;;;;;;41.70;21.15;;;1.90;99.90;;;;;;4952622;28;20706;-73
2021/12/06 17:32:27;;;;;;;35.22;19.85;;;1.90;99.90;;;;;;4946000;28;20201;-72
2021/12/06 17:34:55;;;;;;;28.48;19.30;;;1.90;99.90;;;;;;4951197;29;20846;-73
2021/12/06 17:37:22;;;;;;;34.58;20.05;;;2.00;99.90;;;;;;4946076;28;20725;-72
2021/12/06 17:39:50;;;;;;;40.85;18.60;;;2.00;99.90;;;;;;4944509;28;20261;-72
2021/12/06 17:42:17;;;;;;;32.05;17.67;;;2.00;99.90;;;;;;4946776;29;20230;-72
2021/12/06 17:44:51;;;;;;;37.95;17.40;;;2.00;99.90;;;;;;4946321;28;20208;-73
2021/12/06 17:47:18;;;;;;;24.67;14.40;;;2.00;99.90;;;;;;4952638;28;20266;-72
2021/12/06 17:49:44;;;;;;;25.67;14.75;;;2.00;99.90;;;;;;4940872;29;20209;-72
2021/12/06 17:52:13;;;;;;;31.52;16.63;;;2.00;99.90;;;;;;4953380;28;20213;-72